sensor_id;sensor_type;location;lat;lon;timestamp;P1;durP1;ratioP1;P2;durP2;ratioP2
27576;SDS011;15011;53.380;10.034;2023-05-07T00:02:19;15.18;;;10.63;;
27576;SDS011;15011;53.380;10.034;2023-05-07T00:07:19;15.73;;;10.98;;
27576;SDS011;15011;53.380;10.034;2023-05-07T00:12:19;15.05;;;10.00;;
27576;SDS011;15011;53.380;10.034;2023-05-07T00:17:20;11.57;;;9.10;;
27576;SDS011;15011;53.380;10.034;2023-05-07T00:22:20;11.57;;;8.77;;
27576;SDS011;15011;53.380;10.034;2023-05-07T00:27:21;12.75;;;9.68;;
27576;SDS011;15011;53.380;10.034;2023-05-07T00:32:22;11.25;;;8.68;;
27576;SDS011;15011;53.380;10.034;2023-05-07T00:37:23;11.45;;;8.23;;
27576;SDS011;15011;53.380;10.034;2023-05-07T00:42:23;13.80;;;8.60;;
27576;SDS011;15011;53.380;10.034;2023-05-07T00:47:24;12.90;;;8.50;;
27576;SDS011;15011;53.380;10.034;2023-05-07T00:52:25;10.32;;;7.72;;
27576;SDS011;15011;53.380;10.034;2023-05-07T00:57:26;12.57;;;8.00;;
27576;SDS011;15011;53.380;10.034;2023-05-07T01:02:27;9.77;;;7.82;;
27576;SDS011;15011;53.380;10.034;2023-05-07T01:07:27;11.80;;;7.72;;
27576;SDS011;15011;53.380;10.034;2023-05-07T01:12:29;9.15;;;7.40;;
27576;SDS011;15011;53.380;10.034;2023-05-07T01:17:32;10.48;;;7.82;;
27576;SDS011;15011;53.380;10.034;2023-05-07T01:22:37;11.02;;;7.95;;
27576;SDS011;15011;53.380;10.034;2023-05-07T01:27:38;10.02;;;8.05;;
27576;SDS011;15011;53.380;10.034;2023-05-07T01:32:52;10.18;;;7.32;;
27576;SDS011;15011;53.380;10.034;2023-05-07T01:37:55;11.50;;;7.70;;
27576;SDS011;15011;53.380;10.034;2023-05-07T01:42:56;10.52;;;7.72;;
27576;SDS011;15011;53.380;10.034;2023-05-07T01:47:57;10.65;;;7.97;;
27576;SDS011;15011;53.380;10.034;2023-05-07T01:52:58;9.27;;;7.40;;
27576;SDS011;15011;53.380;10.034;2023-05-07T01:57:59;10.82;;;8.13;;
27576;SDS011;15011;53.380;10.034;2023-05-07T02:02:59;8.65;;;7.43;;
27576;SDS011;15011;53.380;10.034;2023-05-07T02:08:00;12.05;;;7.72;;
27576;SDS011;15011;53.380;10.034;2023-05-07T02:13:00;11.38;;;7.63;;
27576;SDS011;15011;53.380;10.034;2023-05-07T02:18:05;10.60;;;8.00;;
27576;SDS011;15011;53.380;10.034;2023-05-07T02:23:07;10.07;;;7.50;;
27576;SDS011;15011;53.380;10.034;2023-05-07T02:28:08;10.23;;;7.78;;
27576;SDS011;15011;53.380;10.034;2023-05-07T02:33:09;13.35;;;8.38;;
27576;SDS011;15011;53.380;10.034;2023-05-07T02:38:09;9.65;;;7.70;;
27576;SDS011;15011;53.380;10.034;2023-05-07T02:43:10;9.50;;;7.75;;
27576;SDS011;15011;53.380;10.034;2023-05-07T02:48:11;13.65;;;8.85;;
27576;SDS011;15011;53.380;10.034;2023-05-07T02:53:11;10.30;;;8.25;;
27576;SDS011;15011;53.380;10.034;2023-05-07T02:58:12;11.82;;;9.00;;
27576;SDS011;15011;53.380;10.034;2023-05-07T03:03:12;11.40;;;8.73;;
27576;SDS011;15011;53.380;10.034;2023-05-07T03:08:13;12.80;;;9.05;;
27576;SDS011;15011;53.380;10.034;2023-05-07T03:13:14;12.93;;;9.25;;
27576;SDS011;15011;53.380;10.034;2023-05-07T03:18:14;11.35;;;8.75;;
27576;SDS011;15011;53.380;10.034;2023-05-07T03:23:15;12.75;;;9.45;;
27576;SDS011;15011;53.380;10.034;2023-05-07T03:28:15;23.58;;;13.52;;
27576;SDS011;15011;53.380;10.034;2023-05-07T03:33:16;11.35;;;9.20;;
27576;SDS011;15011;53.380;10.034;2023-05-07T03:38:16;12.00;;;9.52;;
27576;SDS011;15011;53.380;10.034;2023-05-07T03:43:17;13.85;;;9.23;;
27576;SDS011;15011;53.380;10.034;2023-05-07T03:48:17;13.30;;;9.65;;
27576;SDS011;15011;53.380;10.034;2023-05-07T03:53:18;12.30;;;9.48;;
27576;SDS011;15011;53.380;10.034;2023-05-07T03:58:18;14.68;;;9.88;;
27576;SDS011;15011;53.380;10.034;2023-05-07T04:03:19;13.55;;;9.68;;
27576;SDS011;15011;53.380;10.034;2023-05-07T04:08:19;13.35;;;9.20;;
27576;SDS011;15011;53.380;10.034;2023-05-07T04:13:20;13.10;;;10.07;;
27576;SDS011;15011;53.380;10.034;2023-05-07T04:18:20;13.68;;;10.13;;
27576;SDS011;15011;53.380;10.034;2023-05-07T04:23:21;14.90;;;10.15;;
27576;SDS011;15011;53.380;10.034;2023-05-07T04:28:21;14.60;;;10.50;;
27576;SDS011;15011;53.380;10.034;2023-05-07T04:33:22;15.27;;;10.90;;
27576;SDS011;15011;53.380;10.034;2023-05-07T04:38:22;13.77;;;9.82;;
27576;SDS011;15011;53.380;10.034;2023-05-07T04:43:25;14.38;;;10.60;;
27576;SDS011;15011;53.380;10.034;2023-05-07T04:48:26;13.23;;;10.00;;
27576;SDS011;15011;53.380;10.034;2023-05-07T04:53:27;12.85;;;9.13;;
27576;SDS011;15011;53.380;10.034;2023-05-07T04:58:27;13.07;;;9.88;;
27576;SDS011;15011;53.380;10.034;2023-05-07T05:03:31;14.43;;;9.60;;
27576;SDS011;15011;53.380;10.034;2023-05-07T05:08:31;12.85;;;9.48;;
27576;SDS011;15011;53.380;10.034;2023-05-07T05:13:32;12.95;;;9.75;;
27576;SDS011;15011;53.380;10.034;2023-05-07T05:18:32;14.30;;;9.25;;
27576;SDS011;15011;53.380;10.034;2023-05-07T05:23:33;13.00;;;9.23;;
27576;SDS011;15011;53.380;10.034;2023-05-07T05:28:33;14.55;;;9.60;;
27576;SDS011;15011;53.380;10.034;2023-05-07T05:33:34;14.00;;;9.95;;
27576;SDS011;15011;53.380;10.034;2023-05-07T05:38:35;15.18;;;9.63;;
27576;SDS011;15011;53.380;10.034;2023-05-07T05:43:35;12.50;;;8.73;;
27576;SDS011;15011;53.380;10.034;2023-05-07T05:48:36;13.07;;;9.93;;
27576;SDS011;15011;53.380;10.034;2023-05-07T05:53:36;15.03;;;9.50;;
27576;SDS011;15011;53.380;10.034;2023-05-07T05:58:37;11.68;;;8.88;;
27576;SDS011;15011;53.380;10.034;2023-05-07T06:03:37;16.45;;;9.43;;
27576;SDS011;15011;53.380;10.034;2023-05-07T06:08:38;12.18;;;8.65;;
27576;SDS011;15011;53.380;10.034;2023-05-07T06:13:38;11.20;;;8.60;;
27576;SDS011;15011;53.380;10.034;2023-05-07T06:18:38;10.93;;;8.15;;
27576;SDS011;15011;53.380;10.034;2023-05-07T06:23:39;11.98;;;7.78;;
27576;SDS011;15011;53.380;10.034;2023-05-07T06:28:41;11.40;;;8.68;;
27576;SDS011;15011;53.380;10.034;2023-05-07T06:33:41;12.40;;;7.88;;
27576;SDS011;15011;53.380;10.034;2023-05-07T06:38:42;11.52;;;7.68;;
27576;SDS011;15011;53.380;10.034;2023-05-07T06:43:43;10.05;;;7.35;;
27576;SDS011;15011;53.380;10.034;2023-05-07T06:48:43;14.18;;;8.15;;
27576;SDS011;15011;53.380;10.034;2023-05-07T06:53:44;10.93;;;7.22;;
27576;SDS011;15011;53.380;10.034;2023-05-07T06:58:45;11.40;;;7.80;;
27576;SDS011;15011;53.380;10.034;2023-05-07T07:03:45;11.35;;;8.07;;
27576;SDS011;15011;53.380;10.034;2023-05-07T07:08:46;13.07;;;7.93;;
27576;SDS011;15011;53.380;10.034;2023-05-07T07:13:46;12.20;;;7.60;;
27576;SDS011;15011;53.380;10.034;2023-05-07T07:18:46;10.38;;;7.47;;
27576;SDS011;15011;53.380;10.034;2023-05-07T07:23:47;12.05;;;7.75;;
27576;SDS011;15011;53.380;10.034;2023-05-07T07:28:47;15.55;;;8.50;;
27576;SDS011;15011;53.380;10.034;2023-05-07T07:33:48;11.27;;;7.13;;
27576;SDS011;15011;53.380;10.034;2023-05-07T07:38:50;9.48;;;6.43;;
27576;SDS011;15011;53.380;10.034;2023-05-07T07:43:50;9.07;;;6.87;;
27576;SDS011;15011;53.380;10.034;2023-05-07T07:48:51;10.18;;;6.70;;
27576;SDS011;15011;53.380;10.034;2023-05-07T07:53:51;10.20;;;6.47;;
27576;SDS011;15011;53.380;10.034;2023-05-07T07:58:51;10.48;;;6.60;;
27576;SDS011;15011;53.380;10.034;2023-05-07T08:03:52;10.38;;;6.60;;
27576;SDS011;15011;53.380;10.034;2023-05-07T08:08:52;10.07;;;6.43;;
27576;SDS011;15011;53.380;10.034;2023-05-07T08:13:53;9.70;;;6.25;;
27576;SDS011;15011;53.380;10.034;2023-05-07T08:18:54;7.57;;;5.90;;
27576;SDS011;15011;53.380;10.034;2023-05-07T08:23:54;9.25;;;5.85;;
27576;SDS011;15011;53.380;10.034;2023-05-07T08:28:55;7.65;;;5.68;;
27576;SDS011;15011;53.380;10.034;2023-05-07T08:33:55;10.98;;;5.97;;
27576;SDS011;15011;53.380;10.034;2023-05-07T08:38:57;10.93;;;5.90;;
27576;SDS011;15011;53.380;10.034;2023-05-07T08:43:58;7.45;;;5.80;;
27576;SDS011;15011;53.380;10.034;2023-05-07T08:49:02;7.60;;;5.50;;
27576;SDS011;15011;53.380;10.034;2023-05-07T08:54:03;8.27;;;6.15;;
27576;SDS011;15011;53.380;10.034;2023-05-07T08:59:05;6.80;;;5.27;;
27576;SDS011;15011;53.380;10.034;2023-05-07T09:04:05;9.10;;;4.90;;
27576;SDS011;15011;53.380;10.034;2023-05-07T09:09:07;8.15;;;5.32;;
27576;SDS011;15011;53.380;10.034;2023-05-07T09:14:07;6.57;;;4.93;;
27576;SDS011;15011;53.380;10.034;2023-05-07T09:19:08;8.38;;;5.45;;
27576;SDS011;15011;53.380;10.034;2023-05-07T09:24:08;8.57;;;5.57;;
27576;SDS011;15011;53.380;10.034;2023-05-07T09:29:10;6.85;;;5.60;;
27576;SDS011;15011;53.380;10.034;2023-05-07T09:34:10;9.90;;;6.10;;
27576;SDS011;15011;53.380;10.034;2023-05-07T09:39:10;10.10;;;5.30;;
27576;SDS011;15011;53.380;10.034;2023-05-07T09:44:11;6.57;;;4.68;;
27576;SDS011;15011;53.380;10.034;2023-05-07T09:49:15;10.15;;;6.32;;
27576;SDS011;15011;53.380;10.034;2023-05-07T09:54:21;8.20;;;6.97;;
27576;SDS011;15011;53.380;10.034;2023-05-07T09:59:23;10.93;;;6.65;;
27576;SDS011;15011;53.380;10.034;2023-05-07T10:04:25;9.27;;;6.20;;
27576;SDS011;15011;53.380;10.034;2023-05-07T10:09:26;8.60;;;5.53;;
27576;SDS011;15011;53.380;10.034;2023-05-07T10:14:26;9.30;;;6.15;;
27576;SDS011;15011;53.380;10.034;2023-05-07T10:19:28;8.27;;;6.40;;
27576;SDS011;15011;53.380;10.034;2023-05-07T10:24:31;8.27;;;5.83;;
27576;SDS011;15011;53.380;10.034;2023-05-07T10:29:39;10.70;;;7.25;;
27576;SDS011;15011;53.380;10.034;2023-05-07T10:34:49;10.50;;;6.72;;
27576;SDS011;15011;53.380;10.034;2023-05-07T10:39:51;11.52;;;6.45;;
27576;SDS011;15011;53.380;10.034;2023-05-07T10:44:51;9.10;;;7.15;;
27576;SDS011;15011;53.380;10.034;2023-05-07T10:50:19;7.95;;;6.35;;
27576;SDS011;15011;53.380;10.034;2023-05-07T11:05:24;7.22;;;5.78;;
27576;SDS011;15011;53.380;10.034;2023-05-07T11:15:48;10.95;;;6.15;;
27576;SDS011;15011;53.380;10.034;2023-05-07T11:20:50;7.43;;;5.93;;
27576;SDS011;15011;53.380;10.034;2023-05-07T11:26:04;6.63;;;5.43;;
27576;SDS011;15011;53.380;10.034;2023-05-07T11:31:06;7.60;;;5.68;;
27576;SDS011;15011;53.380;10.034;2023-05-07T11:36:07;6.78;;;5.18;;
27576;SDS011;15011;53.380;10.034;2023-05-07T11:41:08;8.80;;;5.57;;
27576;SDS011;15011;53.380;10.034;2023-05-07T11:46:09;8.15;;;5.07;;
27576;SDS011;15011;53.380;10.034;2023-05-07T11:51:10;7.47;;;5.27;;
27576;SDS011;15011;53.380;10.034;2023-05-07T11:56:15;8.23;;;4.97;;
27576;SDS011;15011;53.380;10.034;2023-05-07T12:01:16;7.65;;;4.50;;
27576;SDS011;15011;53.380;10.034;2023-05-07T12:06:18;6.00;;;4.80;;
27576;SDS011;15011;53.380;10.034;2023-05-07T12:11:22;9.93;;;5.27;;
27576;SDS011;15011;53.380;10.034;2023-05-07T12:16:23;6.18;;;4.70;;
27576;SDS011;15011;53.380;10.034;2023-05-07T12:21:24;5.47;;;4.20;;
27576;SDS011;15011;53.380;10.034;2023-05-07T12:26:25;5.78;;;4.30;;
27576;SDS011;15011;53.380;10.034;2023-05-07T12:31:26;5.90;;;3.60;;
27576;SDS011;15011;53.380;10.034;2023-05-07T12:36:27;4.30;;;3.30;;
27576;SDS011;15011;53.380;10.034;2023-05-07T12:41:55;4.53;;;3.08;;
27576;SDS011;15011;53.380;10.034;2023-05-07T12:46:57;6.28;;;3.67;;
27576;SDS011;15011;53.380;10.034;2023-05-07T12:51:57;4.85;;;3.97;;
27576;SDS011;15011;53.380;10.034;2023-05-07T12:57:02;6.80;;;3.47;;
27576;SDS011;15011;53.380;10.034;2023-05-07T13:02:09;4.82;;;3.15;;
27576;SDS011;15011;53.380;10.034;2023-05-07T13:07:09;4.65;;;3.38;;
27576;SDS011;15011;53.380;10.034;2023-05-07T13:12:10;6.50;;;3.25;;
27576;SDS011;15011;53.380;10.034;2023-05-07T13:17:11;5.80;;;5.05;;
27576;SDS011;15011;53.380;10.034;2023-05-07T13:22:11;4.35;;;3.15;;
27576;SDS011;15011;53.380;10.034;2023-05-07T13:27:12;3.15;;;2.85;;
27576;SDS011;15011;53.380;10.034;2023-05-07T13:32:12;5.37;;;2.93;;
27576;SDS011;15011;53.380;10.034;2023-05-07T13:37:13;4.88;;;2.90;;
27576;SDS011;15011;53.380;10.034;2023-05-07T13:42:13;3.80;;;3.00;;
27576;SDS011;15011;53.380;10.034;2023-05-07T13:47:13;3.08;;;2.45;;
27576;SDS011;15011;53.380;10.034;2023-05-07T13:52:14;3.15;;;2.30;;
27576;SDS011;15011;53.380;10.034;2023-05-07T13:57:15;4.45;;;3.60;;
27576;SDS011;15011;53.380;10.034;2023-05-07T14:02:15;3.47;;;2.33;;
27576;SDS011;15011;53.380;10.034;2023-05-07T14:07:16;4.10;;;2.63;;
27576;SDS011;15011;53.380;10.034;2023-05-07T14:12:17;4.57;;;2.10;;
27576;SDS011;15011;53.380;10.034;2023-05-07T14:17:18;3.20;;;2.25;;
27576;SDS011;15011;53.380;10.034;2023-05-07T14:22:19;3.92;;;2.22;;
27576;SDS011;15011;53.380;10.034;2023-05-07T14:27:20;4.43;;;2.00;;
27576;SDS011;15011;53.380;10.034;2023-05-07T14:32:21;2.28;;;1.90;;
27576;SDS011;15011;53.380;10.034;2023-05-07T14:37:21;2.35;;;2.00;;
27576;SDS011;15011;53.380;10.034;2023-05-07T14:42:22;2.00;;;1.80;;
27576;SDS011;15011;53.380;10.034;2023-05-07T14:47:22;3.75;;;2.00;;
27576;SDS011;15011;53.380;10.034;2023-05-07T14:52:23;2.10;;;1.75;;
27576;SDS011;15011;53.380;10.034;2023-05-07T14:57:23;3.08;;;1.90;;
27576;SDS011;15011;53.380;10.034;2023-05-07T15:02:24;3.25;;;1.77;;
27576;SDS011;15011;53.380;10.034;2023-05-07T15:07:24;2.83;;;1.83;;
27576;SDS011;15011;53.380;10.034;2023-05-07T15:12:25;1.95;;;1.70;;
27576;SDS011;15011;53.380;10.034;2023-05-07T15:17:25;2.10;;;1.90;;
27576;SDS011;15011;53.380;10.034;2023-05-07T15:22:26;1.73;;;1.53;;
27576;SDS011;15011;53.380;10.034;2023-05-07T15:27:26;3.45;;;1.95;;
27576;SDS011;15011;53.380;10.034;2023-05-07T15:32:26;2.47;;;1.90;;
27576;SDS011;15011;53.380;10.034;2023-05-07T15:37:27;1.98;;;1.70;;
27576;SDS011;15011;53.380;10.034;2023-05-07T15:42:28;3.13;;;1.60;;
27576;SDS011;15011;53.380;10.034;2023-05-07T15:47:28;2.25;;;1.92;;
27576;SDS011;15011;53.380;10.034;2023-05-07T15:52:33;3.65;;;1.80;;
27576;SDS011;15011;53.380;10.034;2023-05-07T15:57:33;4.85;;;1.88;;
27576;SDS011;15011;53.380;10.034;2023-05-07T16:02:34;4.40;;;1.98;;
27576;SDS011;15011;53.380;10.034;2023-05-07T16:07:36;3.77;;;2.07;;
27576;SDS011;15011;53.380;10.034;2023-05-07T16:12:36;2.15;;;1.90;;
27576;SDS011;15011;53.380;10.034;2023-05-07T16:17:37;2.35;;;1.75;;
27576;SDS011;15011;53.380;10.034;2023-05-07T16:22:38;4.38;;;2.10;;
27576;SDS011;15011;53.380;10.034;2023-05-07T16:27:38;2.17;;;1.90;;
27576;SDS011;15011;53.380;10.034;2023-05-07T16:32:39;4.05;;;2.40;;
27576;SDS011;15011;53.380;10.034;2023-05-07T16:37:40;2.15;;;1.80;;
27576;SDS011;15011;53.380;10.034;2023-05-07T16:42:40;2.78;;;2.22;;
27576;SDS011;15011;53.380;10.034;2023-05-07T16:47:41;3.85;;;1.77;;
27576;SDS011;15011;53.380;10.034;2023-05-07T16:52:42;2.38;;;1.80;;
27576;SDS011;15011;53.380;10.034;2023-05-07T16:57:42;4.67;;;2.00;;
27576;SDS011;15011;53.380;10.034;2023-05-07T17:02:42;3.53;;;2.00;;
27576;SDS011;15011;53.380;10.034;2023-05-07T17:07:44;5.63;;;2.92;;
27576;SDS011;15011;53.380;10.034;2023-05-07T17:12:45;3.83;;;2.10;;
27576;SDS011;15011;53.380;10.034;2023-05-07T17:17:45;2.60;;;1.77;;
27576;SDS011;15011;53.380;10.034;2023-05-07T17:22:46;2.10;;;1.90;;
27576;SDS011;15011;53.380;10.034;2023-05-07T17:27:46;3.42;;;1.58;;
27576;SDS011;15011;53.380;10.034;2023-05-07T17:32:48;2.23;;;2.00;;
27576;SDS011;15011;53.380;10.034;2023-05-07T17:37:48;4.27;;;1.77;;
27576;SDS011;15011;53.380;10.034;2023-05-07T17:42:51;2.33;;;1.90;;
27576;SDS011;15011;53.380;10.034;2023-05-07T17:47:52;4.55;;;1.75;;
27576;SDS011;15011;53.380;10.034;2023-05-07T17:52:52;3.50;;;1.90;;
27576;SDS011;15011;53.380;10.034;2023-05-07T17:57:53;2.78;;;1.90;;
27576;SDS011;15011;53.380;10.034;2023-05-07T18:02:53;1.52;;;1.42;;
27576;SDS011;15011;53.380;10.034;2023-05-07T18:07:54;2.70;;;1.75;;
27576;SDS011;15011;53.380;10.034;2023-05-07T18:12:55;3.92;;;1.90;;
27576;SDS011;15011;53.380;10.034;2023-05-07T18:17:55;2.17;;;1.70;;
27576;SDS011;15011;53.380;10.034;2023-05-07T18:22:56;2.13;;;1.63;;
27576;SDS011;15011;53.380;10.034;2023-05-07T18:27:56;3.00;;;1.70;;
27576;SDS011;15011;53.380;10.034;2023-05-07T18:32:57;1.80;;;1.63;;
27576;SDS011;15011;53.380;10.034;2023-05-07T18:37:57;4.00;;;1.95;;
27576;SDS011;15011;53.380;10.034;2023-05-07T18:42:57;2.92;;;2.00;;
27576;SDS011;15011;53.380;10.034;2023-05-07T18:47:58;3.15;;;2.20;;
27576;SDS011;15011;53.380;10.034;2023-05-07T18:52:58;5.35;;;3.15;;
27576;SDS011;15011;53.380;10.034;2023-05-07T18:57:59;3.45;;;2.50;;
27576;SDS011;15011;53.380;10.034;2023-05-07T19:02:59;5.00;;;2.33;;
27576;SDS011;15011;53.380;10.034;2023-05-07T19:08:00;6.13;;;2.15;;
27576;SDS011;15011;53.380;10.034;2023-05-07T19:13:00;5.70;;;1.73;;
27576;SDS011;15011;53.380;10.034;2023-05-07T19:18:01;4.65;;;2.42;;
27576;SDS011;15011;53.380;10.034;2023-05-07T19:23:01;2.97;;;2.10;;
27576;SDS011;15011;53.380;10.034;2023-05-07T19:28:02;3.55;;;2.33;;
27576;SDS011;15011;53.380;10.034;2023-05-07T19:33:02;4.50;;;2.20;;
27576;SDS011;15011;53.380;10.034;2023-05-07T19:38:03;4.28;;;2.33;;
27576;SDS011;15011;53.380;10.034;2023-05-07T19:43:04;5.88;;;2.40;;
27576;SDS011;15011;53.380;10.034;2023-05-07T19:48:05;3.72;;;2.17;;
27576;SDS011;15011;53.380;10.034;2023-05-07T19:53:05;3.07;;;2.00;;
27576;SDS011;15011;53.380;10.034;2023-05-07T19:58:06;8.52;;;2.53;;
27576;SDS011;15011;53.380;10.034;2023-05-07T20:03:07;2.58;;;2.15;;
27576;SDS011;15011;53.380;10.034;2023-05-07T20:08:07;5.35;;;2.58;;
27576;SDS011;15011;53.380;10.034;2023-05-07T20:13:07;2.67;;;2.00;;
27576;SDS011;15011;53.380;10.034;2023-05-07T20:18:08;3.85;;;2.60;;
27576;SDS011;15011;53.380;10.034;2023-05-07T20:23:09;3.97;;;2.75;;
27576;SDS011;15011;53.380;10.034;2023-05-07T20:28:10;2.67;;;2.40;;
27576;SDS011;15011;53.380;10.034;2023-05-07T20:33:11;5.80;;;2.67;;
27576;SDS011;15011;53.380;10.034;2023-05-07T20:38:11;3.58;;;2.70;;
27576;SDS011;15011;53.380;10.034;2023-05-07T20:43:12;2.80;;;2.30;;
27576;SDS011;15011;53.380;10.034;2023-05-07T20:48:12;6.18;;;2.40;;
27576;SDS011;15011;53.380;10.034;2023-05-07T20:53:13;4.97;;;2.70;;
27576;SDS011;15011;53.380;10.034;2023-05-07T20:58:14;4.45;;;2.72;;
27576;SDS011;15011;53.380;10.034;2023-05-07T21:03:14;3.35;;;2.30;;
27576;SDS011;15011;53.380;10.034;2023-05-07T21:08:14;3.25;;;2.50;;
27576;SDS011;15011;53.380;10.034;2023-05-07T21:13:15;4.75;;;2.70;;
27576;SDS011;15011;53.380;10.034;2023-05-07T21:18:16;4.28;;;2.63;;
27576;SDS011;15011;53.380;10.034;2023-05-07T21:23:17;4.60;;;2.95;;
27576;SDS011;15011;53.380;10.034;2023-05-07T21:28:18;5.82;;;3.35;;
27576;SDS011;15011;53.380;10.034;2023-05-07T21:33:18;3.35;;;2.65;;
27576;SDS011;15011;53.380;10.034;2023-05-07T21:38:19;3.92;;;3.42;;
27576;SDS011;15011;53.380;10.034;2023-05-07T21:43:20;7.03;;;3.45;;
27576;SDS011;15011;53.380;10.034;2023-05-07T21:48:20;4.95;;;3.10;;
27576;SDS011;15011;53.380;10.034;2023-05-07T21:53:21;5.95;;;3.35;;
27576;SDS011;15011;53.380;10.034;2023-05-07T21:58:21;4.05;;;2.92;;
27576;SDS011;15011;53.380;10.034;2023-05-07T22:03:22;4.97;;;3.35;;
27576;SDS011;15011;53.380;10.034;2023-05-07T22:08:22;4.88;;;3.30;;
27576;SDS011;15011;53.380;10.034;2023-05-07T22:13:23;5.18;;;3.42;;
27576;SDS011;15011;53.380;10.034;2023-05-07T22:18:23;4.70;;;3.15;;
27576;SDS011;15011;53.380;10.034;2023-05-07T22:23:24;4.10;;;3.22;;
27576;SDS011;15011;53.380;10.034;2023-05-07T22:28:25;4.57;;;3.30;;
27576;SDS011;15011;53.380;10.034;2023-05-07T22:33:25;4.07;;;3.30;;
27576;SDS011;15011;53.380;10.034;2023-05-07T22:38:26;3.47;;;2.80;;
27576;SDS011;15011;53.380;10.034;2023-05-07T22:43:26;4.32;;;3.05;;
27576;SDS011;15011;53.380;10.034;2023-05-07T22:48:27;5.05;;;3.08;;
27576;SDS011;15011;53.380;10.034;2023-05-07T22:53:28;4.30;;;2.90;;
27576;SDS011;15011;53.380;10.034;2023-05-07T22:58:28;5.05;;;3.08;;
27576;SDS011;15011;53.380;10.034;2023-05-07T23:03:29;5.07;;;3.17;;
27576;SDS011;15011;53.380;10.034;2023-05-07T23:08:29;3.67;;;3.20;;
27576;SDS011;15011;53.380;10.034;2023-05-07T23:13:30;6.45;;;3.60;;
27576;SDS011;15011;53.380;10.034;2023-05-07T23:18:30;4.03;;;3.50;;
27576;SDS011;15011;53.380;10.034;2023-05-07T23:23:32;3.97;;;3.30;;
27576;SDS011;15011;53.380;10.034;2023-05-07T23:28:34;4.72;;;4.00;;
27576;SDS011;15011;53.380;10.034;2023-05-07T23:33:34;7.07;;;3.80;;
27576;SDS011;15011;53.380;10.034;2023-05-07T23:38:35;6.43;;;3.88;;
27576;SDS011;15011;53.380;10.034;2023-05-07T23:43:36;4.22;;;3.25;;
27576;SDS011;15011;53.380;10.034;2023-05-07T23:48:36;7.78;;;3.10;;
27576;SDS011;15011;53.380;10.034;2023-05-07T23:53:37;4.15;;;3.20;;
27576;SDS011;15011;53.380;10.034;2023-05-07T23:58:37;4.25;;;2.92;;
